createdAt,value
2022-11-12T00:01:33.175Z,992.85
2022-11-12T00:08:09.685Z,992.83
2022-11-12T00:14:38.099Z,992.88
2022-11-12T00:21:12.648Z,992.85
2022-11-12T00:27:41.343Z,992.8
2022-11-12T00:34:07.358Z,992.84
2022-11-12T00:40:29.145Z,992.79
2022-11-12T00:46:58.268Z,992.85
2022-11-12T00:53:31.049Z,992.87
2022-11-12T00:59:55.685Z,992.87
2022-11-12T01:06:23.705Z,992.94
2022-11-12T01:13:05.452Z,992.95
2022-11-12T01:19:41.349Z,992.95
2022-11-12T01:26:26.836Z,992.94
2022-11-12T01:33:03.440Z,992.83
2022-11-12T01:39:33.965Z,992.82
2022-11-12T01:46:22.070Z,992.89
2022-11-12T01:53:27.164Z,992.82
2022-11-12T02:00:23.248Z,992.84
2022-11-12T02:06:52.462Z,992.81
2022-11-12T02:13:31.079Z,992.71
2022-11-12T02:20:19.441Z,992.74
2022-11-12T02:26:59.209Z,992.68
2022-11-12T02:33:26.958Z,992.7
2022-11-12T02:39:50.846Z,992.67
2022-11-12T02:46:25.129Z,992.65
2022-11-12T02:52:55.678Z,992.56
2022-11-12T02:59:23.465Z,992.57
2022-11-12T03:05:56.583Z,992.52
2022-11-12T03:12:27.277Z,992.53
2022-11-12T03:19:00.125Z,992.52
2022-11-12T03:25:36.933Z,992.37
2022-11-12T03:32:07.439Z,992.36
2022-11-12T03:38:45.818Z,992.34
2022-11-12T03:45:20.790Z,992.35
2022-11-12T03:51:58.067Z,992.3
2022-11-12T03:58:34.075Z,992.29
2022-11-12T04:04:55.914Z,992.29
2022-11-12T04:11:39.938Z,992.29
2022-11-12T04:18:16.687Z,992.26
2022-11-12T04:24:49.554Z,992.26
2022-11-12T04:31:21.607Z,992.28
2022-11-12T04:37:55.442Z,992.3
2022-11-12T04:44:25.117Z,992.23
2022-11-12T04:50:57.070Z,992.24
2022-11-12T04:57:27.973Z,992.21
2022-11-12T05:04:01.732Z,992.15
2022-11-12T05:10:29.174Z,992.15
2022-11-12T05:16:50.906Z,992.23
2022-11-12T05:23:18.927Z,992.28
2022-11-12T05:29:56.245Z,992.27
2022-11-12T05:36:25.851Z,992.24
2022-11-12T05:43:06.171Z,992.16
2022-11-12T05:49:31.829Z,992.08
2022-11-12T05:56:04.348Z,991.99
2022-11-12T06:02:34.296Z,992.03
2022-11-12T06:09:09.195Z,992.12
2022-11-12T06:15:40.480Z,992.17
2022-11-12T06:22:20.310Z,992.22
2022-11-12T06:28:49.722Z,992.39
2022-11-12T06:35:17.958Z,992.44
2022-11-12T06:41:51.386Z,992.55
2022-11-12T06:48:27.372Z,992.6
2022-11-12T06:55:12.154Z,992.66
2022-11-12T07:01:44.482Z,992.68
2022-11-12T07:08:19.106Z,992.81
2022-11-12T07:14:57.576Z,992.77
2022-11-12T07:21:36.882Z,992.82
2022-11-12T07:28:09.927Z,992.87
2022-11-12T07:34:29.272Z,992.88
2022-11-12T07:40:58.918Z,992.96
2022-11-12T07:47:38.084Z,993.04
2022-11-12T07:54:13.031Z,993.07
2022-11-12T08:00:37.763Z,993.09
2022-11-12T08:07:09.893Z,993.03
2022-11-12T08:13:44.051Z,992.99
2022-11-12T08:20:23.019Z,993.03
2022-11-12T08:26:57.998Z,993
2022-11-12T08:33:26.085Z,992.95
2022-11-12T08:39:56.167Z,992.9
2022-11-12T08:46:26.205Z,992.93
2022-11-12T08:52:51.082Z,992.88
2022-11-12T08:59:15.714Z,992.87
2022-11-12T09:05:51.094Z,992.87
2022-11-12T09:12:22.421Z,992.76
2022-11-12T09:19:06.366Z,992.76
2022-11-12T09:25:48.152Z,992.75
2022-11-12T09:32:09.133Z,992.73
2022-11-12T09:38:49.908Z,992.73
2022-11-12T09:45:40.548Z,992.68
2022-11-12T09:52:43.488Z,992.67
2022-11-12T09:59:40.391Z,992.59
2022-11-12T10:06:39.723Z,992.48
2022-11-12T10:13:30.508Z,992.44
2022-11-12T10:20:49.025Z,992.45
2022-11-12T10:27:55.272Z,992.41
2022-11-12T10:34:43.035Z,992.43
2022-11-12T10:41:48.645Z,992.43
2022-11-12T10:48:49.622Z,992.32
2022-11-12T10:55:48.604Z,992.25
2022-11-12T11:02:47.890Z,992.14
2022-11-12T11:09:30.135Z,992.11
2022-11-12T11:16:19.041Z,992.09
2022-11-12T11:23:21.099Z,992.05
2022-11-12T11:30:42.787Z,991.87
2022-11-12T11:38:08.085Z,991.82
2022-11-12T11:45:29.046Z,991.72
2022-11-12T11:52:33.873Z,991.6
2022-11-12T11:59:31.562Z,991.6
2022-11-12T12:06:40.395Z,991.54
2022-11-12T12:13:49.280Z,991.47
2022-11-12T12:20:53.633Z,991.37
2022-11-12T12:28:09.016Z,991.32
2022-11-12T12:35:22.632Z,991.27
2022-11-12T12:42:32.055Z,991.12
2022-11-12T12:49:24.089Z,991.05
2022-11-12T12:56:13.865Z,990.99
2022-11-12T13:03:06.180Z,991.01
2022-11-12T13:10:05.515Z,991.04
2022-11-12T13:17:02.781Z,990.97
2022-11-12T13:24:10.110Z,990.92
2022-11-12T13:30:55.442Z,990.85
2022-11-12T13:37:51.647Z,990.83
2022-11-12T13:44:46.297Z,990.85
2022-11-12T13:51:30.478Z,990.88
2022-11-12T13:58:30.888Z,990.94
2022-11-12T14:05:32.128Z,990.97
2022-11-12T14:12:33.611Z,990.93
2022-11-12T14:19:27.772Z,990.87
2022-11-12T14:26:12.483Z,990.87
2022-11-12T14:32:59.156Z,990.83
2022-11-12T14:39:52.767Z,990.76
2022-11-12T14:46:41.372Z,990.63
2022-11-12T14:53:57.465Z,990.6
2022-11-12T15:00:44.319Z,990.47
2022-11-12T15:07:30.074Z,990.44
2022-11-12T15:14:30.230Z,990.33
2022-11-12T15:21:31.667Z,990.35
2022-11-12T15:28:30.132Z,990.37
2022-11-12T15:35:22.528Z,990.36
2022-11-12T15:42:18.392Z,990.26
2022-11-12T15:49:10.202Z,990.22
2022-11-12T15:55:39.217Z,990.15
2022-11-12T16:02:18.803Z,990.11
2022-11-12T16:08:48.215Z,990.06
2022-11-12T16:15:31.546Z,990.09
2022-11-12T16:22:07.664Z,990.14
2022-11-12T16:28:55.200Z,990.05
2022-11-12T16:35:22.619Z,990.11
2022-11-12T16:41:55.299Z,990.16
2022-11-12T16:48:35.336Z,990.2
2022-11-12T16:55:12.475Z,990.19
2022-11-12T17:01:48.818Z,990.14
2022-11-12T17:08:37.245Z,990.08
2022-11-12T17:15:13.218Z,990.01
2022-11-12T17:21:55.407Z,989.99
2022-11-12T17:28:37.769Z,990.03
2022-11-12T17:35:12.216Z,990
2022-11-12T17:41:40.345Z,990.04
2022-11-12T17:48:19.670Z,989.98
2022-11-12T17:54:58.225Z,989.98
2022-11-12T18:01:29.587Z,989.93
2022-11-12T18:08:11.716Z,989.89
2022-11-12T18:15:02.289Z,989.88
2022-11-12T18:21:35.412Z,989.87
2022-11-12T18:28:15.235Z,989.91
2022-11-12T18:34:56.295Z,989.89
2022-11-12T18:41:19.803Z,989.75
2022-11-12T18:47:47.231Z,989.73
2022-11-12T18:54:13.934Z,989.73
2022-11-12T19:00:49.575Z,989.65
2022-11-12T19:07:25.029Z,989.61
2022-11-12T19:13:53.479Z,989.67
2022-11-12T19:20:34.715Z,989.62
2022-11-12T19:27:19.453Z,989.61
2022-11-12T19:33:50.745Z,989.57
2022-11-12T19:40:20.584Z,989.52
2022-11-12T19:47:02.677Z,989.47
2022-11-12T19:53:35.433Z,989.37
2022-11-12T20:00:02.074Z,989.41
2022-11-12T20:06:36.000Z,989.4
2022-11-12T20:12:58.912Z,989.3
2022-11-12T20:19:42.022Z,989.16
2022-11-12T20:26:18.518Z,989.14
2022-11-12T20:32:54.161Z,989.13
2022-11-12T20:39:33.502Z,989.09
2022-11-12T20:46:05.416Z,989.07
2022-11-12T20:52:29.693Z,989.02
2022-11-12T20:58:54.096Z,988.96
2022-11-12T21:05:19.443Z,988.94
2022-11-12T21:11:46.346Z,988.91
2022-11-12T21:18:12.615Z,988.89
2022-11-12T21:24:33.610Z,988.86
2022-11-12T21:30:54.763Z,988.82
2022-11-12T21:37:30.277Z,988.81
2022-11-12T21:44:03.462Z,988.79
2022-11-12T21:50:35.868Z,988.77
2022-11-12T21:56:57.901Z,988.61
2022-11-12T22:03:32.665Z,988.52
2022-11-12T22:10:02.970Z,988.54
2022-11-12T22:16:40.671Z,988.45
2022-11-12T22:23:09.076Z,988.43
2022-11-12T22:29:38.216Z,988.34
2022-11-12T22:36:12.659Z,988.37
2022-11-12T22:42:53.732Z,988.37
2022-11-12T22:49:27.491Z,988.36
2022-11-12T22:56:03.200Z,988.33
2022-11-12T23:02:29.546Z,988.22
2022-11-12T23:08:58.274Z,988.25
2022-11-12T23:15:20.111Z,988.17
2022-11-12T23:21:50.542Z,988.1
2022-11-12T23:28:17.961Z,988.03
2022-11-12T23:34:41.795Z,987.96
2022-11-12T23:41:14.547Z,987.98
2022-11-12T23:47:38.891Z,987.82
2022-11-12T23:54:13.644Z,987.7
